Airfield :
LOGIN :

Register | Disclaimer

   EN    FR    IT 

 










Legend :    VFR   Marginal VFR   IFR   Intensive IFR   Very Intensive IFR
Visi :
Ceiling :
>= 8 km
>= 3000ft
5 to 8 km
1000 to 3000 ft
1500m to 5 km
500 to 1000 ft
800 to 1500m
200 to 500 ft
< 800m
< 200 ft
Symbols :   Thunderstorms  Fog  Heavy snow  Heavy precipitations  Wind > 20 kt
SIGMETs :     Misc.  Thunderstorms  Icing  Turbulence  Mountain Waves  Volcanic Ashes






- Airport Elevation : 25 ft
- IATA code : QCY


EGXC - RAF Coningsby

CURRENT METAR :
  • 091050Z 32019G30KT 9999 FEW036 07/00 Q1008 NOSIG RMK BLU BLU

EXPIRED METARs :
  • 091020Z 32021KT 9999 FEW036 07/00 Q1007 NOSIG RMK BLU BLU
  • 090950Z 32022G32KT 9999 FEW040 07/01 Q1006 NOSIG RMK BLU BLU
  • 090920Z 32021KT 9999 FEW040 07/01 Q1004 NOSIG RMK BLU BLU
  • 090850Z 31018KT 9999 FEW040 06/01 Q1003 TEMPO 31025G35KT RMK BLU TEMPO BLU
  • 090820Z 31019KT 9999 SCT040 SCT120 07/02 Q1001 TEMPO 31025G35KT RMK BLU TEMPO BLU
  • 090750Z 31019G29KT 9999 SCT040 BKN120 07/02 Q1000 NOSIG RMK BLU BLU

TAF TAF EGXC
Valid from the 09 at 09:00 until the 10 at 03:00 UTC


090759Z 0909/1003 32015G25KT 9999 FEW025
PROB40
TEMPO 0909/0912 32025G35KT
BECMG 0913/0915 31015KT
BECMG 0915/0918 20008KT



MET'MAP, your aeronautical weather chart ! - Copyright ORBIFLY December 2007 - Disclaimer

ORBIFLY MET'MAP TEAM :

Programming & Development : Alexandra Zaïnal
Concept & original design : Baudouin d'Aumeries
Assistance for programming : Marc-Olivier Méhu
Technical & hardware support : Manuel Goepfert

Contact : metmap@orbifly.com




SOURCES & CREDITS :

   NOAA